Aviation Digital Data Service (ADDS)

Output produced by METARs form (0721 UTC 20 March 2019)
found at http://www.aviationweather.gov/metar/data/
 
METAR text: FXMM 200600Z 00000KT 9999 NSC 19/14 Q1021 NOSIG
Conditions at: FXMM (MASERU/MOSHOESHO, LS) observed 0600 UTC 20 March 2019
Temperature: 19.0°C (66°F)
Dewpoint: 14.0°C (57°F) [RH = 73%]
Pressure (altimeter): 30.15 inches Hg (1021.0 mb)
Winds: calm
Visibility: 6 or more miles (10+ km)
Ceiling: at least 12,000 feet AGL
Clouds: sky clear below 12,000 feet AGL
Weather: no significant weather observed at this time

METAR text: FXMM 200500Z 00000KT 9999 NSC 16/13 Q1021 NOSIG
Conditions at: FXMM (MASERU/MOSHOESHO, LS) observed 0500 UTC 20 March 2019
Temperature: 16.0°C (61°F)
Dewpoint: 13.0°C (55°F) [RH = 82%]
Pressure (altimeter): 30.15 inches Hg (1021.0 mb)
Winds: calm
Visibility: 6 or more miles (10+ km)
Ceiling: at least 12,000 feet AGL
Clouds: sky clear below 12,000 feet AGL
Weather: no significant weather observed at this time

METAR text: FXMM 200400Z 00000KT 9999 NSC 15/12 Q//// NOSIG
Conditions at: FXMM (MASERU/MOSHOESHO, LS) observed 0400 UTC 20 March 2019
Temperature: 15.0°C (59°F)
Dewpoint: 12.0°C (54°F) [RH = 82%]
Pressure (altimeter): missing
Winds: calm
Visibility: 6 or more miles (10+ km)
Ceiling: at least 12,000 feet AGL
Clouds: sky clear below 12,000 feet AGL
Weather: no significant weather observed at this time

METAR text: FXMM 191200Z VRB02KT 9999 SCT035 25/12 Q1022 NOSIG
Conditions at: FXMM (MASERU/MOSHOESHO, LS) observed 1200 UTC 19 March 2019
Temperature: 25.0°C (77°F)
Dewpoint: 12.0°C (54°F) [RH = 44%]
Pressure (altimeter): 30.18 inches Hg (1022.0 mb)
Winds: variable direction winds at 2 MPH (2 knots; 1.0 m/s)
Visibility: 6 or more miles (10+ km)
Ceiling: at least 12,000 feet AGL
Clouds: scattered clouds at 3500 feet AGL
Weather: no significant weather observed at this time

METAR text: FXMM 191000Z 29005KT 9999 FEW035 24/12 Q1021 NOSIG
Conditions at: FXMM (MASERU/MOSHOESHO, LS) observed 1000 UTC 19 March 2019
Temperature: 24.0°C (75°F)
Dewpoint: 12.0°C (54°F) [RH = 47%]
Pressure (altimeter): 30.15 inches Hg (1021.0 mb)
Winds: from the WNW (290 degrees) at 6 MPH (5 knots; 2.6 m/s)
Visibility: 6 or more miles (10+ km)
Ceiling: at least 12,000 feet AGL
Clouds: few clouds at 3500 feet AGL
Weather: no significant weather observed at this time

METAR text: FXMM 190900Z 33004KT 9999 FEW035 23/14 Q1022 NOSIG
Conditions at: FXMM (MASERU/MOSHOESHO, LS) observed 0900 UTC 19 March 2019
Temperature: 23.0°C (73°F)
Dewpoint: 14.0°C (57°F) [RH = 57%]
Pressure (altimeter): 30.18 inches Hg (1022.0 mb)
Winds: from the NNW (330 degrees) at 5 MPH (4 knots; 2.1 m/s)
Visibility: 6 or more miles (10+ km)
Ceiling: at least 12,000 feet AGL
Clouds: few clouds at 3500 feet AGL
Weather: no significant weather observed at this time

METAR text: FXMM 190800Z 36004KT 9999 FEW035 22/13 Q1022 NOSIG
Conditions at: FXMM (MASERU/MOSHOESHO, LS) observed 0800 UTC 19 March 2019
Temperature: 22.0°C (72°F)
Dewpoint: 13.0°C (55°F) [RH = 57%]
Pressure (altimeter): 30.18 inches Hg (1022.0 mb)
Winds: from the N (360 degrees) at 5 MPH (4 knots; 2.1 m/s)
Visibility: 6 or more miles (10+ km)
Ceiling: at least 12,000 feet AGL
Clouds: few clouds at 3500 feet AGL
Weather: no significant weather observed at this time

METAR text: FXMM 190700Z 35003KT 9999 NSC 20/14 Q1022 NOSIG
Conditions at: FXMM (MASERU/MOSHOESHO, LS) observed 0700 UTC 19 March 2019
Temperature: 20.0°C (68°F)
Dewpoint: 14.0°C (57°F) [RH = 68%]
Pressure (altimeter): 30.18 inches Hg (1022.0 mb)
Winds: from the N (350 degrees) at 3 MPH (3 knots; 1.5 m/s)
Visibility: 6 or more miles (10+ km)
Ceiling: at least 12,000 feet AGL
Clouds: sky clear below 12,000 feet AGL
Weather: no significant weather observed at this time

METAR text: FXMM 190600Z 00000KT 9999 NSC 17/14 Q1022 NOSIG
Conditions at: FXMM (MASERU/MOSHOESHO, LS) observed 0600 UTC 19 March 2019
Temperature: 17.0°C (63°F)
Dewpoint: 14.0°C (57°F) [RH = 82%]
Pressure (altimeter): 30.18 inches Hg (1022.0 mb)
Winds: calm
Visibility: 6 or more miles (10+ km)
Ceiling: at least 12,000 feet AGL
Clouds: sky clear below 12,000 feet AGL
Weather: no significant weather observed at this time

METAR text: FXMM 190500Z 02003KT 9999 NSC 16/13 Q1021 NOSIG
Conditions at: FXMM (MASERU/MOSHOESHO, LS) observed 0500 UTC 19 March 2019
Temperature: 16.0°C (61°F)
Dewpoint: 13.0°C (55°F) [RH = 82%]
Pressure (altimeter): 30.15 inches Hg (1021.0 mb)
Winds: from the NNE (20 degrees) at 3 MPH (3 knots; 1.5 m/s)
Visibility: 6 or more miles (10+ km)
Ceiling: at least 12,000 feet AGL
Clouds: sky clear below 12,000 feet AGL
Weather: no significant weather observed at this time

METAR text: FXMM 190400Z 00000KT 9999 NSC 15/13 Q//// NOSIG
Conditions at: FXMM (MASERU/MOSHOESHO, LS) observed 0400 UTC 19 March 2019
Temperature: 15.0°C (59°F)
Dewpoint: 13.0°C (55°F) [RH = 88%]
Pressure (altimeter): missing
Winds: calm
Visibility: 6 or more miles (10+ km)
Ceiling: at least 12,000 feet AGL
Clouds: sky clear below 12,000 feet AGL
Weather: no significant weather observed at this time